createdAt,value
2023-01-03T00:00:11.868Z,21.80
2023-01-03T00:02:14.119Z,23.63
2023-01-03T00:04:19.550Z,21.40
2023-01-03T00:06:34.611Z,20.20
2023-01-03T00:08:37.354Z,18.07
2023-01-03T00:10:39.996Z,18.20
2023-01-03T00:12:42.340Z,17.47
2023-01-03T00:14:44.735Z,19.27
2023-01-03T00:16:50.305Z,20.13
2023-01-03T00:18:52.775Z,19.67
2023-01-03T00:20:54.773Z,19.67
2023-01-03T00:22:57.288Z,21.60
2023-01-03T00:24:59.670Z,24.07
2023-01-03T00:27:02.227Z,23.83
2023-01-03T00:29:13.428Z,30.17
2023-01-03T00:31:15.601Z,28.60
2023-01-03T00:33:17.748Z,24.00
2023-01-03T00:35:19.824Z,24.83
2023-01-03T00:37:23.094Z,25.27
2023-01-03T00:39:25.814Z,23.30
2023-01-03T00:41:28.358Z,23.23
2023-01-03T00:43:30.595Z,23.77
2023-01-03T00:45:35.668Z,22.10
2023-01-03T00:47:38.036Z,20.30
2023-01-03T00:49:40.239Z,25.37
2023-01-03T00:51:42.904Z,27.53
2023-01-03T00:53:48.639Z,28.93
2023-01-03T00:55:51.001Z,27.97
2023-01-03T00:57:53.159Z,26.93
2023-01-03T00:59:55.499Z,26.33
2023-01-03T01:01:58.087Z,25.13
2023-01-03T01:04:07.759Z,26.03
2023-01-03T01:06:18.804Z,24.27
2023-01-03T01:08:20.806Z,22.83
2023-01-03T01:10:23.388Z,21.73
2023-01-03T01:12:25.709Z,23.97
2023-01-03T01:14:30.024Z,22.27
2023-01-03T01:16:33.012Z,24.30
2023-01-03T01:18:39.308Z,29.83
2023-01-03T01:20:41.590Z,29.27
2023-01-03T01:22:43.705Z,28.90
2023-01-03T01:24:45.981Z,27.23
2023-01-03T01:26:48.532Z,26.77
2023-01-03T01:28:52.032Z,29.07
2023-01-03T01:30:54.728Z,26.37
2023-01-03T01:32:57.406Z,24.87
2023-01-03T01:34:59.558Z,22.50
2023-01-03T01:37:01.703Z,19.93
2023-01-03T01:39:07.563Z,19.90
2023-01-03T01:41:14.118Z,15.27
2023-01-03T01:43:42.373Z,16.43
2023-01-03T01:45:47.861Z,17.17
2023-01-03T01:48:13.414Z,15.13
2023-01-03T01:50:49.326Z,14.80
2023-01-03T01:52:54.834Z,15.73
2023-01-03T01:54:59.116Z,15.20
2023-01-03T01:57:02.475Z,13.57
2023-01-03T01:59:09.235Z,14.17
2023-01-03T02:01:14.007Z,13.03
2023-01-03T02:03:16.315Z,12.90
2023-01-03T02:09:12.491Z,13.33
2023-01-03T02:11:42.790Z,11.60
2023-01-03T02:14:06.144Z,13.03
2023-01-03T02:16:48.422Z,12.80
2023-01-03T02:19:38.327Z,14.33
2023-01-03T02:21:58.562Z,11.37
2023-01-03T02:24:31.774Z,11.67
2023-01-03T02:26:39.542Z,10.57
2023-01-03T02:29:14.797Z,10.43
2023-01-03T02:31:33.786Z,9.33
2023-01-03T02:33:46.604Z,10.20
2023-01-03T02:36:19.638Z,9.47
2023-01-03T02:38:40.948Z,9.73
2023-01-03T02:40:56.429Z,8.47
2023-01-03T02:43:19.451Z,9.47
2023-01-03T02:45:31.159Z,9.90
2023-01-03T02:47:46.140Z,13.73
2023-01-03T02:49:51.720Z,13.10
2023-01-03T02:51:59.841Z,14.67
2023-01-03T02:54:05.341Z,11.47
2023-01-03T02:56:11.921Z,12.10
2023-01-03T02:58:22.797Z,11.33
2023-01-03T03:00:29.502Z,15.70
2023-01-03T03:02:35.160Z,27.03
2023-01-03T03:04:40.134Z,28.20
2023-01-03T03:06:50.294Z,27.87
2023-01-03T03:08:52.553Z,28.47
2023-01-03T03:11:14.463Z,21.37
2023-01-03T03:13:41.401Z,21.97
2023-01-03T03:16:01.785Z,24.17
2023-01-03T03:18:19.228Z,19.07
2023-01-03T03:20:40.626Z,19.60
2023-01-03T03:23:03.646Z,19.67
2023-01-03T03:25:31.886Z,18.80
2023-01-03T03:28:09.613Z,18.27
2023-01-03T03:30:15.971Z,21.13
2023-01-03T03:32:18.639Z,19.40
2023-01-03T03:34:32.792Z,18.97
2023-01-03T03:36:51.565Z,16.47
2023-01-03T03:38:54.359Z,15.63
2023-01-03T03:41:23.996Z,12.43
2023-01-03T03:44:03.231Z,14.30
2023-01-03T03:46:16.085Z,13.10
2023-01-03T03:49:25.384Z,12.30
2023-01-03T03:51:34.803Z,13.33
2023-01-03T03:53:39.685Z,14.07
2023-01-03T03:55:46.127Z,44.83
2023-01-03T03:57:55.288Z,54.70
2023-01-03T04:00:03.535Z,76.47
2023-01-03T04:02:16.927Z,72.80
2023-01-03T04:04:25.160Z,63.80
2023-01-03T04:06:36.302Z,47.13
2023-01-03T04:08:38.821Z,27.47
2023-01-03T04:10:44.145Z,22.37
2023-01-03T04:12:50.810Z,16.83
2023-01-03T04:14:53.273Z,15.60
2023-01-03T04:16:55.639Z,15.67
2023-01-03T04:18:57.785Z,16.07
2023-01-03T04:21:00.292Z,17.40
2023-01-03T04:23:02.371Z,22.73
2023-01-03T04:25:04.814Z,32.37
2023-01-03T04:27:07.163Z,25.70
2023-01-03T04:29:09.316Z,21.13
2023-01-03T04:31:13.052Z,23.00
2023-01-03T04:33:15.820Z,20.40
2023-01-03T04:35:18.175Z,18.40
2023-01-03T04:37:20.493Z,16.80
2023-01-03T04:39:22.767Z,17.97
2023-01-03T04:41:24.971Z,18.13
2023-01-03T04:43:46.424Z,17.33
2023-01-03T04:45:49.868Z,17.27
2023-01-03T04:47:54.221Z,18.17
2023-01-03T04:49:56.567Z,18.23
2023-01-03T04:51:59.028Z,18.07
2023-01-03T04:54:02.148Z,17.30
2023-01-03T04:56:04.453Z,19.50
2023-01-03T04:58:06.584Z,21.03
2023-01-03T05:00:10.343Z,29.53
2023-01-03T05:02:12.603Z,30.23
2023-01-03T05:04:14.804Z,26.03
2023-01-03T05:06:18.082Z,23.47
2023-01-03T05:08:20.126Z,32.70
2023-01-03T05:10:22.452Z,33.90
2023-01-03T05:12:24.763Z,33.13
2023-01-03T05:14:27.029Z,30.57
2023-01-03T05:16:29.719Z,32.47
2023-01-03T05:18:33.038Z,32.97
2023-01-03T05:20:57.777Z,32.07
2023-01-03T05:23:18.619Z,30.63
2023-01-03T05:25:40.113Z,29.53
2023-01-03T05:27:42.146Z,27.63
2023-01-03T05:29:47.576Z,31.37
2023-01-03T05:31:50.002Z,30.57
2023-01-03T05:33:54.022Z,39.10
2023-01-03T05:35:56.239Z,41.83
2023-01-03T05:37:58.600Z,44.37
2023-01-03T05:40:00.866Z,38.63
2023-01-03T05:42:03.215Z,39.33
2023-01-03T05:44:06.443Z,36.30
2023-01-03T05:46:08.594Z,35.80
2023-01-03T05:48:15.001Z,32.00
2023-01-03T05:50:17.272Z,38.83
2023-01-03T05:52:20.114Z,67.60
2023-01-03T05:54:22.073Z,63.33
2023-01-03T05:56:24.503Z,63.93
2023-01-03T05:58:26.625Z,46.07
2023-01-03T06:00:29.693Z,44.87
2023-01-03T06:02:32.050Z,42.50
2023-01-03T06:04:34.396Z,38.60
2023-01-03T06:06:36.578Z,31.17
2023-01-03T06:08:39.442Z,28.10
2023-01-03T06:10:41.469Z,20.17
2023-01-03T06:12:44.029Z,17.33
2023-01-03T06:14:46.107Z,23.93
2023-01-03T06:17:06.753Z,27.50
2023-01-03T06:19:11.542Z,21.00
2023-01-03T06:21:13.577Z,20.57
2023-01-03T06:23:16.137Z,16.63
2023-01-03T06:25:20.918Z,15.37
2023-01-03T06:27:23.566Z,17.53
2023-01-03T06:29:26.135Z,21.63
2023-01-03T06:31:28.399Z,28.07
2023-01-03T06:33:30.673Z,27.30
2023-01-03T06:35:32.606Z,23.23
2023-01-03T06:37:34.930Z,25.93
2023-01-03T06:39:37.576Z,24.40
2023-01-03T06:41:40.445Z,25.77
2023-01-03T06:43:42.890Z,27.53
2023-01-03T06:46:03.636Z,28.73
2023-01-03T06:48:25.544Z,31.60
2023-01-03T06:50:46.538Z,30.83
2023-01-03T06:53:07.112Z,32.00
2023-01-03T06:55:09.765Z,31.50
2023-01-03T06:57:11.975Z,27.60
2023-01-03T06:59:30.239Z,21.87
2023-01-03T07:01:32.860Z,20.67
2023-01-03T07:03:35.368Z,19.03
2023-01-03T07:05:37.564Z,19.47
2023-01-03T07:07:40.118Z,17.87
2023-01-03T07:09:42.283Z,19.47
2023-01-03T07:11:44.765Z,20.33
2023-01-03T07:13:59.099Z,20.87
2023-01-03T07:16:01.462Z,32.73
2023-01-03T07:18:03.922Z,42.40
2023-01-03T07:20:06.693Z,37.07
2023-01-03T07:22:11.821Z,38.23
2023-01-03T07:24:18.853Z,37.90
2023-01-03T07:26:21.539Z,29.20
2023-01-03T07:28:24.025Z,24.43
2023-01-03T07:30:26.328Z,23.07
2023-01-03T07:32:28.579Z,23.93
2023-01-03T07:34:37.197Z,21.47
2023-01-03T07:36:39.526Z,24.87
2023-01-03T07:38:43.380Z,27.17
2023-01-03T07:40:48.688Z,25.30
2023-01-03T07:43:10.074Z,27.57
2023-01-03T07:45:15.175Z,29.73
2023-01-03T07:47:17.315Z,26.80
2023-01-03T07:49:19.424Z,25.53
2023-01-03T07:51:22.388Z,28.37
2023-01-03T07:53:24.447Z,30.57
2023-01-03T07:55:29.532Z,32.70
2023-01-03T07:57:31.528Z,30.47
2023-01-03T07:59:33.680Z,30.50
2023-01-03T08:01:36.040Z,31.97
2023-01-03T08:03:39.533Z,30.07
2023-01-03T08:05:41.623Z,30.97
2023-01-03T08:07:48.006Z,30.27
2023-01-03T08:10:08.398Z,30.80
2023-01-03T08:12:46.742Z,36.40
2023-01-03T08:14:48.692Z,37.37
2023-01-03T08:16:50.987Z,39.00
2023-01-03T08:18:52.939Z,42.60
2023-01-03T08:20:57.216Z,42.87
2023-01-03T08:23:00.623Z,43.17
2023-01-03T08:25:02.619Z,49.33
2023-01-03T08:27:05.359Z,52.27
2023-01-03T08:29:08.165Z,49.30
2023-01-03T08:31:18.823Z,49.80
2023-01-03T08:33:21.289Z,48.13
2023-01-03T08:35:27.458Z,48.10
2023-01-03T08:37:46.757Z,50.77
2023-01-03T08:39:59.440Z,49.13
2023-01-03T08:42:05.258Z,46.33
2023-01-03T08:44:14.815Z,38.70
2023-01-03T08:46:18.234Z,38.13
2023-01-03T08:48:22.431Z,37.13
2023-01-03T08:50:26.584Z,38.03
2023-01-03T08:52:34.517Z,37.43
2023-01-03T08:54:38.215Z,37.37
2023-01-03T08:56:40.485Z,34.93
2023-01-03T08:58:42.744Z,37.53
2023-01-03T09:00:48.046Z,37.43
2023-01-03T09:02:50.638Z,41.43
2023-01-03T09:04:52.920Z,36.27
2023-01-03T09:06:55.114Z,36.63
2023-01-03T09:08:57.355Z,37.53
2023-01-03T09:10:59.353Z,37.57
2023-01-03T09:13:04.951Z,35.07
2023-01-03T09:15:07.439Z,40.23
2023-01-03T09:17:10.003Z,39.53
2023-01-03T09:19:12.042Z,43.10
2023-01-03T09:21:14.129Z,45.50
2023-01-03T09:23:17.869Z,44.90
2023-01-03T09:25:20.340Z,37.47
2023-01-03T09:27:23.322Z,31.13
2023-01-03T09:29:25.485Z,32.90
2023-01-03T09:31:29.441Z,31.93
2023-01-03T09:33:31.907Z,28.70
2023-01-03T09:35:34.433Z,27.10
2023-01-03T09:37:37.288Z,26.90
2023-01-03T09:39:43.774Z,24.93
2023-01-03T09:42:07.324Z,23.97
2023-01-03T09:44:10.377Z,22.47
2023-01-03T09:46:24.644Z,20.43
2023-01-03T09:48:34.841Z,20.43
2023-01-03T09:51:14.067Z,20.57
2023-01-03T09:53:21.160Z,20.77
2023-01-03T09:55:53.679Z,20.67
2023-01-03T09:58:14.304Z,21.60
2023-01-03T10:01:01.212Z,20.87
2023-01-03T10:03:50.397Z,22.20
2023-01-03T10:06:44.274Z,27.47
2023-01-03T10:09:02.075Z,28.40
2023-01-03T10:11:12.463Z,29.63
2023-01-03T10:13:26.517Z,30.23
2023-01-03T10:16:32.882Z,29.87
2023-01-03T10:18:48.235Z,28.47
2023-01-03T10:21:28.325Z,30.97
2023-01-03T10:23:31.320Z,31.37
2023-01-03T10:25:33.509Z,27.73
2023-01-03T10:28:10.704Z,28.87
2023-01-03T10:30:19.977Z,29.33
2023-01-03T10:33:15.427Z,27.83
2023-01-03T10:35:19.783Z,27.80
2023-01-03T10:37:24.362Z,28.20
2023-01-03T10:39:32.804Z,30.07
2023-01-03T10:41:46.305Z,30.65
2023-01-03T10:44:02.737Z,32.73
2023-01-03T10:46:25.638Z,34.53
2023-01-03T10:49:08.389Z,37.33
2023-01-03T10:51:32.711Z,40.47
2023-01-03T10:53:41.693Z,40.13
2023-01-03T10:55:54.960Z,37.60
2023-01-03T10:57:59.399Z,42.97
2023-01-03T11:00:02.084Z,38.60
2023-01-03T11:02:13.031Z,40.27
2023-01-03T11:04:18.455Z,45.20
2023-01-03T11:06:20.827Z,55.50
2023-01-03T11:09:03.210Z,55.20
2023-01-03T11:11:05.734Z,55.70
2023-01-03T11:13:41.134Z,54.10
2023-01-03T11:15:44.002Z,49.28
2023-01-03T11:17:54.762Z,47.28
2023-01-03T11:19:57.539Z,45.33
2023-01-03T11:22:38.639Z,42.55
2023-01-03T11:24:52.768Z,37.90
2023-01-03T11:27:17.900Z,33.83
2023-01-03T11:29:45.029Z,30.17
2023-01-03T11:32:05.600Z,31.73
2023-01-03T11:34:37.915Z,36.65
2023-01-03T11:37:03.532Z,42.08
2023-01-03T11:39:52.532Z,58.27
2023-01-03T11:42:03.269Z,130.43
2023-01-03T11:44:34.437Z,124.95
2023-01-03T11:46:48.574Z,103.55
2023-01-03T11:49:24.638Z,119.28
2023-01-03T11:51:48.450Z,163.70
2023-01-03T11:54:27.320Z,129.45
2023-01-03T11:56:47.319Z,81.00
2023-01-03T11:59:19.644Z,53.42
2023-01-03T12:02:07.552Z,35.65
2023-01-03T12:04:18.932Z,28.00
2023-01-03T12:06:45.093Z,25.85
2023-01-03T12:09:25.079Z,24.58
2023-01-03T12:11:57.305Z,24.02
2023-01-03T12:14:44.155Z,21.50
2023-01-03T12:16:51.836Z,23.85
2023-01-03T12:19:33.113Z,25.40
2023-01-03T12:21:42.267Z,23.08
2023-01-03T12:23:52.769Z,23.92
2023-01-03T12:26:02.707Z,21.67
2023-01-03T12:28:19.147Z,21.13
2023-01-03T12:30:39.850Z,21.38
2023-01-03T12:32:55.449Z,20.60
2023-01-03T12:35:19.566Z,21.57
2023-01-03T12:37:30.202Z,24.33
2023-01-03T12:39:56.895Z,22.75
2023-01-03T12:42:25.081Z,22.25
2023-01-03T12:44:41.190Z,23.83
2023-01-03T12:46:55.453Z,24.25
2023-01-03T12:49:01.561Z,28.65
2023-01-03T12:51:06.403Z,29.30
2023-01-03T12:53:36.066Z,27.30
2023-01-03T12:56:05.343Z,25.80
2023-01-03T12:58:07.498Z,25.90
2023-01-03T13:00:25.951Z,25.92
2023-01-03T13:03:01.800Z,26.10
2023-01-03T13:05:16.495Z,25.63
2023-01-03T13:07:26.410Z,28.70
2023-01-03T13:09:36.126Z,31.55
2023-01-03T13:11:49.065Z,32.42
2023-01-03T13:14:03.317Z,30.80
2023-01-03T13:16:50.976Z,29.55
2023-01-03T13:18:54.235Z,30.58
2023-01-03T13:20:57.215Z,30.67
2023-01-03T13:23:14.380Z,32.60
2023-01-03T13:25:42.122Z,32.45
2023-01-03T13:27:56.599Z,33.08
2023-01-03T13:30:03.668Z,31.50
2023-01-03T13:32:25.394Z,31.17
2023-01-03T13:34:34.493Z,33.92
2023-01-03T13:37:05.827Z,33.72
2023-01-03T13:39:44.915Z,32.47
2023-01-03T13:41:54.453Z,36.13
2023-01-03T13:44:08.935Z,35.05
2023-01-03T13:46:28.071Z,35.00
2023-01-03T13:48:38.770Z,36.78
2023-01-03T13:50:43.176Z,38.78
2023-01-03T13:53:10.562Z,39.15
2023-01-03T13:55:57.673Z,35.65
2023-01-03T13:58:00.401Z,35.67
2023-01-03T14:00:12.520Z,35.55
2023-01-03T14:02:40.475Z,36.58
2023-01-03T14:05:21.191Z,37.08
2023-01-03T14:07:51.321Z,37.30
2023-01-03T14:10:01.110Z,43.30
2023-01-03T14:12:22.042Z,45.75
2023-01-03T14:14:31.235Z,51.53
2023-01-03T14:16:56.253Z,57.72
2023-01-03T14:19:11.500Z,57.43
2023-01-03T14:21:25.876Z,67.00
2023-01-03T14:23:59.230Z,63.80
2023-01-03T14:25:52.159Z,59.45
2023-01-03T14:27:56.387Z,52.47
2023-01-03T14:29:58.830Z,54.00
2023-01-03T14:32:01.249Z,47.25
2023-01-03T14:34:05.728Z,48.50
2023-01-03T14:36:19.287Z,44.58
2023-01-03T14:38:32.299Z,40.15
2023-01-03T14:40:34.924Z,36.17
2023-01-03T14:42:45.506Z,34.33
2023-01-03T14:44:55.943Z,35.97
2023-01-03T14:47:01.310Z,33.93
2023-01-03T14:49:07.278Z,35.10
2023-01-03T14:51:10.637Z,33.50
2023-01-03T14:53:14.124Z,39.90
2023-01-03T14:55:19.213Z,37.93
2023-01-03T14:57:28.327Z,44.70
2023-01-03T14:59:31.965Z,48.73
2023-01-03T15:01:34.545Z,44.33
2023-01-03T15:03:40.963Z,43.10
2023-01-03T15:05:43.700Z,38.53
2023-01-03T15:07:45.972Z,37.13
2023-01-03T15:09:49.429Z,37.70
2023-01-03T15:11:57.460Z,40.60
2023-01-03T15:14:06.768Z,41.83
2023-01-03T15:16:38.154Z,38.87
2023-01-03T15:18:41.160Z,38.37
2023-01-03T15:20:45.237Z,39.83
2023-01-03T15:22:47.710Z,40.83
2023-01-03T15:25:15.966Z,38.88
2023-01-03T15:27:39.460Z,39.58
2023-01-03T15:29:44.835Z,38.43
2023-01-03T15:31:54.266Z,37.33
2023-01-03T15:34:34.283Z,38.60
2023-01-03T15:36:37.550Z,40.60
2023-01-03T15:38:43.845Z,39.45
2023-01-03T15:40:49.641Z,38.80
2023-01-03T15:43:11.428Z,43.37
2023-01-03T15:45:41.311Z,46.13
2023-01-03T15:47:44.476Z,48.27
2023-01-03T15:49:49.749Z,45.83
2023-01-03T15:51:51.660Z,46.37
2023-01-03T15:53:54.288Z,49.03
2023-01-03T15:56:00.941Z,50.27
2023-01-03T15:58:03.100Z,49.85
2023-01-03T16:00:08.091Z,53.40
2023-01-03T16:02:18.457Z,52.63
2023-01-03T16:04:21.932Z,51.97
2023-01-03T16:06:24.360Z,53.60
2023-01-03T16:08:33.592Z,58.50
2023-01-03T16:10:36.632Z,56.90
2023-01-03T16:12:43.728Z,57.87
2023-01-03T16:14:49.410Z,60.00
2023-01-03T16:16:57.169Z,53.33
2023-01-03T16:18:59.786Z,50.43
2023-01-03T16:21:03.142Z,49.60
2023-01-03T16:23:05.655Z,48.87
2023-01-03T16:25:15.718Z,47.03
2023-01-03T16:27:25.705Z,46.57
2023-01-03T16:29:27.874Z,44.90
2023-01-03T16:31:35.523Z,45.33
2023-01-03T16:33:38.511Z,44.27
2023-01-03T16:35:40.605Z,44.57
2023-01-03T16:37:43.146Z,48.77
2023-01-03T16:40:20.359Z,50.00
2023-01-03T16:42:27.970Z,47.30
2023-01-03T16:44:30.157Z,45.87
2023-01-03T16:46:35.214Z,46.97
2023-01-03T16:48:40.956Z,50.67
2023-01-03T16:50:43.797Z,55.67
2023-01-03T16:52:48.707Z,53.60
2023-01-03T16:54:51.450Z,50.27
2023-01-03T16:56:53.558Z,47.87
2023-01-03T16:58:55.739Z,45.97
2023-01-03T17:00:57.718Z,45.80
2023-01-03T17:03:01.188Z,43.83
2023-01-03T17:05:41.676Z,47.78
2023-01-03T17:07:46.614Z,49.20
2023-01-03T17:09:50.485Z,49.27
2023-01-03T17:11:52.639Z,46.23
2023-01-03T17:14:02.056Z,44.77
2023-01-03T17:16:09.480Z,42.90
2023-01-03T17:18:19.968Z,40.33
2023-01-03T17:20:23.351Z,39.67
2023-01-03T17:22:25.630Z,38.10
2023-01-03T17:24:28.903Z,50.67
2023-01-03T17:26:33.246Z,49.93
2023-01-03T17:28:35.652Z,49.00
2023-01-03T17:30:38.331Z,42.10
2023-01-03T17:32:42.934Z,39.57
2023-01-03T17:34:45.320Z,41.10
2023-01-03T17:36:47.273Z,39.73
2023-01-03T17:38:50.290Z,40.50
2023-01-03T17:40:53.064Z,36.87
2023-01-03T17:42:57.665Z,37.37
2023-01-03T17:45:19.277Z,37.93
2023-01-03T17:47:41.784Z,34.30
2023-01-03T17:49:44.001Z,35.20
2023-01-03T17:51:46.465Z,36.25
2023-01-03T17:53:49.967Z,36.27
2023-01-03T17:55:52.785Z,39.17
2023-01-03T17:57:56.596Z,39.13
2023-01-03T17:59:58.992Z,40.50
2023-01-03T18:02:01.298Z,38.83
2023-01-03T18:04:06.219Z,36.60
2023-01-03T18:06:20.228Z,41.70
2023-01-03T18:08:24.036Z,46.40
2023-01-03T18:10:43.769Z,45.13
2023-01-03T18:12:48.425Z,42.83
2023-01-03T18:14:50.894Z,44.80
2023-01-03T18:16:55.221Z,58.77
2023-01-03T18:18:57.788Z,52.10
2023-01-03T18:21:00.201Z,57.47
2023-01-03T18:23:02.488Z,51.77
2023-01-03T18:25:05.294Z,55.33
2023-01-03T18:27:09.566Z,52.60
2023-01-03T18:29:15.513Z,49.60
2023-01-03T18:31:19.670Z,49.47
2023-01-03T18:33:22.246Z,49.90
2023-01-03T18:35:32.392Z,50.40
2023-01-03T18:37:37.721Z,58.27
2023-01-03T18:39:39.981Z,55.23
2023-01-03T18:41:42.597Z,58.13
2023-01-03T18:43:44.616Z,50.90
2023-01-03T18:45:47.771Z,50.00
2023-01-03T18:47:50.826Z,49.13
2023-01-03T18:49:53.222Z,48.67
2023-01-03T18:51:55.969Z,50.03
2023-01-03T18:53:59.892Z,51.37
2023-01-03T18:56:03.160Z,40.13
2023-01-03T18:58:24.120Z,39.83
2023-01-03T19:00:27.428Z,39.23
2023-01-03T19:02:30.672Z,40.77
2023-01-03T19:04:33.346Z,37.83
2023-01-03T19:06:43.261Z,37.37
2023-01-03T19:08:45.844Z,37.53
2023-01-03T19:10:48.245Z,38.17
2023-01-03T19:12:53.524Z,41.47
2023-01-03T19:14:58.451Z,37.50
2023-01-03T19:17:00.580Z,37.63
2023-01-03T19:19:03.362Z,36.80
2023-01-03T19:21:05.870Z,34.07
2023-01-03T19:23:08.336Z,36.83
2023-01-03T19:25:16.366Z,35.40
2023-01-03T19:27:29.934Z,34.30
2023-01-03T19:29:39.769Z,35.07
2023-01-03T19:31:44.639Z,35.70
2023-01-03T19:33:46.765Z,36.87
2023-01-03T19:35:50.098Z,36.67
2023-01-03T19:37:53.018Z,38.23
2023-01-03T19:39:55.489Z,37.77
2023-01-03T19:42:18.651Z,38.07
2023-01-03T19:44:20.942Z,37.53
2023-01-03T19:46:23.374Z,40.90
2023-01-03T19:48:29.147Z,39.67
2023-01-03T19:50:36.117Z,40.17
2023-01-03T19:52:38.583Z,41.13
2023-01-03T19:54:40.859Z,40.10
2023-01-03T19:56:43.550Z,37.77
2023-01-03T19:58:46.109Z,39.27
2023-01-03T20:00:49.683Z,41.60
2023-01-03T20:02:56.434Z,48.90
2023-01-03T20:04:59.296Z,54.20
2023-01-03T20:07:01.626Z,51.40
2023-01-03T20:09:03.840Z,53.80
2023-01-03T20:11:21.178Z,56.00
2023-01-03T20:13:25.770Z,52.33
2023-01-03T20:15:38.034Z,48.87
2023-01-03T20:17:40.205Z,50.97
2023-01-03T20:19:42.411Z,46.43
2023-01-03T20:21:46.495Z,45.33
2023-01-03T20:23:54.707Z,46.00
2023-01-03T20:25:56.931Z,45.47
2023-01-03T20:28:01.027Z,48.13
2023-01-03T20:30:03.847Z,52.37
2023-01-03T20:32:06.630Z,48.03
2023-01-03T20:34:12.191Z,47.13
2023-01-03T20:36:23.216Z,47.90
2023-01-03T20:38:27.583Z,45.30
2023-01-03T20:40:29.923Z,47.83
2023-01-03T20:42:32.060Z,47.07
2023-01-03T20:44:34.069Z,47.40
2023-01-03T20:46:39.053Z,45.70
2023-01-03T20:48:41.442Z,47.00
2023-01-03T20:50:45.324Z,52.03
2023-01-03T20:52:48.244Z,53.83
2023-01-03T20:54:53.230Z,54.73
2023-01-03T20:56:55.272Z,52.00
2023-01-03T20:58:58.634Z,53.47
2023-01-03T21:01:05.396Z,49.37
2023-01-03T21:03:09.280Z,51.83
2023-01-03T21:05:11.833Z,48.03
2023-01-03T21:07:27.130Z,47.37
2023-01-03T21:09:29.160Z,45.90
2023-01-03T21:11:34.082Z,48.43
2023-01-03T21:13:36.949Z,54.23
2023-01-03T21:15:39.402Z,56.60
2023-01-03T21:17:45.653Z,54.70
2023-01-03T21:19:51.027Z,54.73
2023-01-03T21:21:55.248Z,53.77
2023-01-03T21:23:57.760Z,52.43
2023-01-03T21:25:59.867Z,59.63
2023-01-03T21:28:03.204Z,59.20
2023-01-03T21:30:31.164Z,61.57
2023-01-03T21:32:33.520Z,59.50
2023-01-03T21:34:35.727Z,57.43
2023-01-03T21:36:38.325Z,52.03
2023-01-03T21:38:40.727Z,58.87
2023-01-03T21:40:43.137Z,56.70
2023-01-03T21:43:05.433Z,56.00
2023-01-03T21:45:12.966Z,57.20
2023-01-03T21:47:15.197Z,56.17
2023-01-03T21:49:17.767Z,57.63
2023-01-03T21:51:33.137Z,62.20
2023-01-03T21:53:40.204Z,67.37
2023-01-03T21:55:44.616Z,77.70
2023-01-03T21:57:47.112Z,82.33
2023-01-03T21:59:49.386Z,78.13
2023-01-03T22:02:10.350Z,82.60
2023-01-03T22:04:19.707Z,79.40
2023-01-03T22:06:21.963Z,81.97
2023-01-03T22:08:24.097Z,77.73
2023-01-03T22:10:26.899Z,75.03
2023-01-03T22:12:29.171Z,70.40
2023-01-03T22:14:31.572Z,67.70
2023-01-03T22:16:33.807Z,61.73
2023-01-03T22:18:37.246Z,56.73
2023-01-03T22:20:39.414Z,56.67
2023-01-03T22:22:42.794Z,54.87
2023-01-03T22:24:44.997Z,52.10
2023-01-03T22:26:47.398Z,51.37
2023-01-03T22:28:49.616Z,47.23
2023-01-03T22:30:52.133Z,49.97
2023-01-03T22:32:57.569Z,49.17
2023-01-03T22:34:59.832Z,51.97
2023-01-03T22:37:02.026Z,56.47
2023-01-03T22:39:04.373Z,57.93
2023-01-03T22:41:15.296Z,54.73
2023-01-03T22:43:17.849Z,49.73
2023-01-03T22:45:19.991Z,51.40
2023-01-03T22:47:22.322Z,52.00
2023-01-03T22:49:24.527Z,51.43
2023-01-03T22:51:27.098Z,52.27
2023-01-03T22:53:29.376Z,53.30
2023-01-03T22:55:32.360Z,55.70
2023-01-03T22:57:34.896Z,56.27
2023-01-03T22:59:39.370Z,65.43
2023-01-03T23:01:41.437Z,68.67
2023-01-03T23:03:44.405Z,70.73
2023-01-03T23:05:46.448Z,67.93
2023-01-03T23:07:48.530Z,69.73
2023-01-03T23:09:52.683Z,66.00
2023-01-03T23:12:13.245Z,66.87
2023-01-03T23:14:18.255Z,69.27
2023-01-03T23:16:20.507Z,67.10
2023-01-03T23:18:22.841Z,67.77
2023-01-03T23:20:31.177Z,65.63
2023-01-03T23:22:33.357Z,60.73
2023-01-03T23:24:35.621Z,62.03
2023-01-03T23:26:38.139Z,75.57
2023-01-03T23:28:40.357Z,69.37
2023-01-03T23:30:42.566Z,64.43
2023-01-03T23:32:44.665Z,57.10
2023-01-03T23:34:46.816Z,60.77
2023-01-03T23:36:49.193Z,103.80
2023-01-03T23:38:51.633Z,93.93
2023-01-03T23:40:53.984Z,79.00
2023-01-03T23:42:56.023Z,62.20
2023-01-03T23:44:58.405Z,54.07
2023-01-03T23:47:00.481Z,49.47
2023-01-03T23:49:04.965Z,43.77
2023-01-03T23:51:10.807Z,40.50
2023-01-03T23:53:12.818Z,37.30
2023-01-03T23:55:15.242Z,31.90
2023-01-03T23:57:17.674Z,30.70
2023-01-03T23:59:19.698Z,29.77
